sensor_id;sensor_type;location;lat;lon;timestamp;temperature;humidity
18317;DHT22;9284;52.298;21.164;2023-04-01T03:11:33;9.30;99.90
18317;DHT22;9284;52.298;21.164;2023-04-01T03:14:02;9.30;99.90
18317;DHT22;9284;52.298;21.164;2023-04-01T03:16:31;9.30;99.90
18317;DHT22;9284;52.298;21.164;2023-04-01T03:19:00;9.30;99.90
18317;DHT22;9284;52.298;21.164;2023-04-01T03:21:29;9.30;99.90
18317;DHT22;9284;52.298;21.164;2023-04-01T03:23:57;9.30;99.90
18317;DHT22;9284;52.298;21.164;2023-04-01T03:26:28;9.30;99.90
18317;DHT22;9284;52.298;21.164;2023-04-01T03:28:58;9.30;99.90
18317;DHT22;9284;52.298;21.164;2023-04-01T03:31:27;9.30;99.90
18317;DHT22;9284;52.298;21.164;2023-04-01T03:33:56;9.30;99.90
18317;DHT22;9284;52.298;21.164;2023-04-01T03:36:25;9.30;99.90
18317;DHT22;9284;52.298;21.164;2023-04-01T03:38:53;9.30;99.90
18317;DHT22;9284;52.298;21.164;2023-04-01T03:41:32;9.30;99.90
18317;DHT22;9284;52.298;21.164;2023-04-01T03:44:01;9.30;99.90
18317;DHT22;9284;52.298;21.164;2023-04-01T03:46:30;9.30;99.90
18317;DHT22;9284;52.298;21.164;2023-04-01T03:48:58;9.30;99.90
18317;DHT22;9284;52.298;21.164;2023-04-01T03:51:26;9.20;99.90
18317;DHT22;9284;52.298;21.164;2023-04-01T03:53:55;9.30;99.90
18317;DHT22;9284;52.298;21.164;2023-04-01T03:56:23;9.30;99.90
18317;DHT22;9284;52.298;21.164;2023-04-01T03:58:51;9.30;99.90
18317;DHT22;9284;52.298;21.164;2023-04-01T04:01:22;9.20;99.90
18317;DHT22;9284;52.298;21.164;2023-04-01T04:03:54;9.20;99.90
18317;DHT22;9284;52.298;21.164;2023-04-01T04:06:24;9.20;99.90
18317;DHT22;9284;52.298;21.164;2023-04-01T04:08:52;9.20;99.90
18317;DHT22;9284;52.298;21.164;2023-04-01T04:11:21;9.20;99.90
18317;DHT22;9284;52.298;21.164;2023-04-01T04:13:51;9.20;99.90
18317;DHT22;9284;52.298;21.164;2023-04-01T04:16:23;9.20;99.90
18317;DHT22;9284;52.298;21.164;2023-04-01T04:18:57;9.20;99.90
18317;DHT22;9284;52.298;21.164;2023-04-01T04:21:25;9.30;99.90
18317;DHT22;9284;52.298;21.164;2023-04-01T04:23:53;9.20;99.90
18317;DHT22;9284;52.298;21.164;2023-04-01T04:26:22;9.20;99.90
18317;DHT22;9284;52.298;21.164;2023-04-01T04:28:56;9.20;99.90
18317;DHT22;9284;52.298;21.164;2023-04-01T04:31:26;9.20;99.90
18317;DHT22;9284;52.298;21.164;2023-04-01T04:33:58;9.10;99.90
18317;DHT22;9284;52.298;21.164;2023-04-01T04:36:28;9.10;99.90
18317;DHT22;9284;52.298;21.164;2023-04-01T04:38:56;9.10;99.90
18317;DHT22;9284;52.298;21.164;2023-04-01T04:41:25;9.10;99.90
18317;DHT22;9284;52.298;21.164;2023-04-01T04:43:55;9.10;99.90
18317;DHT22;9284;52.298;21.164;2023-04-01T04:46:25;9.10;99.90
18317;DHT22;9284;52.298;21.164;2023-04-01T04:49:01;9.10;99.90
18317;DHT22;9284;52.298;21.164;2023-04-01T04:51:29;9.10;99.90
18317;DHT22;9284;52.298;21.164;2023-04-01T04:54:01;9.10;99.90
18317;DHT22;9284;52.298;21.164;2023-04-01T04:56:42;9.10;99.90
18317;DHT22;9284;52.298;21.164;2023-04-01T04:59:10;9.10;99.90
18317;DHT22;9284;52.298;21.164;2023-04-01T05:01:47;9.10;99.90
18317;DHT22;9284;52.298;21.164;2023-04-01T05:04:15;9.10;99.90
18317;DHT22;9284;52.298;21.164;2023-04-01T05:06:44;9.10;99.90
18317;DHT22;9284;52.298;21.164;2023-04-01T05:09:13;9.10;99.90
18317;DHT22;9284;52.298;21.164;2023-04-01T05:11:42;9.10;99.90
18317;DHT22;9284;52.298;21.164;2023-04-01T05:14:13;9.10;99.90
18317;DHT22;9284;52.298;21.164;2023-04-01T05:16:46;9.10;99.90
18317;DHT22;9284;52.298;21.164;2023-04-01T05:19:16;9.10;99.90
18317;DHT22;9284;52.298;21.164;2023-04-01T05:21:44;9.10;99.90
18317;DHT22;9284;52.298;21.164;2023-04-01T05:24:13;9.10;99.90
18317;DHT22;9284;52.298;21.164;2023-04-01T05:26:41;9.10;99.90
18317;DHT22;9284;52.298;21.164;2023-04-01T05:29:10;9.10;99.90
18317;DHT22;9284;52.298;21.164;2023-04-01T05:31:39;9.10;99.90
18317;DHT22;9284;52.298;21.164;2023-04-01T05:34:09;9.10;99.90
18317;DHT22;9284;52.298;21.164;2023-04-01T05:36:37;9.10;99.90
18317;DHT22;9284;52.298;21.164;2023-04-01T05:39:05;9.10;99.90
18317;DHT22;9284;52.298;21.164;2023-04-01T05:41:35;9.10;99.90
18317;DHT22;9284;52.298;21.164;2023-04-01T05:44:04;9.10;99.90
18317;DHT22;9284;52.298;21.164;2023-04-01T05:46:38;9.00;99.90
18317;DHT22;9284;52.298;21.164;2023-04-01T05:49:34;9.10;99.90
18317;DHT22;9284;52.298;21.164;2023-04-01T05:52:03;9.10;99.90
18317;DHT22;9284;52.298;21.164;2023-04-01T05:54:34;9.10;99.90
18317;DHT22;9284;52.298;21.164;2023-04-01T05:57:03;9.00;99.90
18317;DHT22;9284;52.298;21.164;2023-04-01T05:59:31;9.10;99.90
18317;DHT22;9284;52.298;21.164;2023-04-01T06:02:02;9.10;99.90
18317;DHT22;9284;52.298;21.164;2023-04-01T06:04:37;9.00;99.90
18317;DHT22;9284;52.298;21.164;2023-04-01T06:07:11;9.10;99.90
18317;DHT22;9284;52.298;21.164;2023-04-01T06:09:40;9.00;99.90
18317;DHT22;9284;52.298;21.164;2023-04-01T06:12:29;9.10;99.90
18317;DHT22;9284;52.298;21.164;2023-04-01T06:15:15;9.20;99.90
18317;DHT22;9284;52.298;21.164;2023-04-01T06:17:58;9.30;99.90
18317;DHT22;9284;52.298;21.164;2023-04-01T06:20:41;9.40;99.90
18317;DHT22;9284;52.298;21.164;2023-04-01T06:23:21;9.50;99.90
18317;DHT22;9284;52.298;21.164;2023-04-01T06:26:03;9.60;99.90
18317;DHT22;9284;52.298;21.164;2023-04-01T06:28:47;9.60;99.90
18317;DHT22;9284;52.298;21.164;2023-04-01T06:31:38;9.70;99.90
18317;DHT22;9284;52.298;21.164;2023-04-01T06:34:29;9.80;99.90
18317;DHT22;9284;52.298;21.164;2023-04-01T06:37:11;10.20;99.90
18317;DHT22;9284;52.298;21.164;2023-04-01T06:39:59;10.30;99.90
18317;DHT22;9284;52.298;21.164;2023-04-01T06:42:58;10.10;99.90
18317;DHT22;9284;52.298;21.164;2023-04-01T06:45:53;10.20;99.90
18317;DHT22;9284;52.298;21.164;2023-04-01T06:48:53;10.40;99.90
18317;DHT22;9284;52.298;21.164;2023-04-01T06:51:58;10.60;99.90
18317;DHT22;9284;52.298;21.164;2023-04-01T06:54:52;10.90;99.90
18317;DHT22;9284;52.298;21.164;2023-04-01T06:57:44;10.90;1.00
18317;DHT22;9284;52.298;21.164;2023-04-01T07:00:29;11.00;1.00
18317;DHT22;9284;52.298;21.164;2023-04-01T07:03:05;10.90;1.00
18317;DHT22;9284;52.298;21.164;2023-04-01T07:05:36;10.70;1.00
18317;DHT22;9284;52.298;21.164;2023-04-01T07:08:08;10.60;1.00
18317;DHT22;9284;52.298;21.164;2023-04-01T07:10:43;10.60;1.00
18317;DHT22;9284;52.298;21.164;2023-04-01T07:13:49;10.50;1.00
18317;DHT22;9284;52.298;21.164;2023-04-01T07:16:21;10.70;70.30
18317;DHT22;9284;52.298;21.164;2023-04-01T07:18:56;10.90;99.90
18317;DHT22;9284;52.298;21.164;2023-04-01T07:21:36;11.20;99.90
18317;DHT22;9284;52.298;21.164;2023-04-01T07:24:21;11.00;1.00
18317;DHT22;9284;52.298;21.164;2023-04-01T07:27:07;11.00;99.90
18317;DHT22;9284;52.298;21.164;2023-04-01T07:29:38;11.20;1.00
18317;DHT22;9284;52.298;21.164;2023-04-01T07:32:16;11.10;1.00
18317;DHT22;9284;52.298;21.164;2023-04-01T07:35:07;11.20;99.90
18317;DHT22;9284;52.298;21.164;2023-04-01T07:37:43;11.20;99.90
18317;DHT22;9284;52.298;21.164;2023-04-01T07:40:24;11.00;63.90
18317;DHT22;9284;52.298;21.164;2023-04-01T07:43:07;11.00;99.90
18317;DHT22;9284;52.298;21.164;2023-04-01T07:45:50;11.10;99.90
18317;DHT22;9284;52.298;21.164;2023-04-01T07:48:26;11.10;99.90
18317;DHT22;9284;52.298;21.164;2023-04-01T07:51:05;11.20;1.00
18317;DHT22;9284;52.298;21.164;2023-04-01T07:53:41;11.20;56.30
18317;DHT22;9284;52.298;21.164;2023-04-01T07:56:15;11.40;99.90
18317;DHT22;9284;52.298;21.164;2023-04-01T07:58:55;11.30;17.60
18317;DHT22;9284;52.298;21.164;2023-04-01T08:02:06;11.20;1.00
18317;DHT22;9284;52.298;21.164;2023-04-01T08:04:47;11.00;99.90
18317;DHT22;9284;52.298;21.164;2023-04-01T08:07:20;11.00;1.00
18317;DHT22;9284;52.298;21.164;2023-04-01T08:10:14;11.20;99.90
18317;DHT22;9284;52.298;21.164;2023-04-01T08:13:12;11.30;99.90
18317;DHT22;9284;52.298;21.164;2023-04-01T08:16:09;11.30;1.00
18317;DHT22;9284;52.298;21.164;2023-04-01T08:18:54;11.40;99.90
18317;DHT22;9284;52.298;21.164;2023-04-01T08:21:28;11.50;99.90
18317;DHT22;9284;52.298;21.164;2023-04-01T08:23:57;11.70;99.90
18317;DHT22;9284;52.298;21.164;2023-04-01T08:26:32;11.70;1.00
18317;DHT22;9284;52.298;21.164;2023-04-01T08:29:07;11.60;1.00
18317;DHT22;9284;52.298;21.164;2023-04-01T08:31:44;11.90;1.00
18317;DHT22;9284;52.298;21.164;2023-04-01T08:34:18;11.90;1.00
18317;DHT22;9284;52.298;21.164;2023-04-01T08:36:51;12.00;1.00
18317;DHT22;9284;52.298;21.164;2023-04-01T08:39:27;12.00;99.90
18317;DHT22;9284;52.298;21.164;2023-04-01T08:42:21;12.10;99.90
18317;DHT22;9284;52.298;21.164;2023-04-01T08:45:15;11.90;49.00
18317;DHT22;9284;52.298;21.164;2023-04-01T08:48:22;12.00;99.90
18317;DHT22;9284;52.298;21.164;2023-04-01T08:51:42;12.00;99.90
18317;DHT22;9284;52.298;21.164;2023-04-01T08:54:46;11.90;1.00
18317;DHT22;9284;52.298;21.164;2023-04-01T08:57:37;11.80;1.00
18317;DHT22;9284;52.298;21.164;2023-04-01T09:00:30;11.80;99.90
18317;DHT22;9284;52.298;21.164;2023-04-01T09:03:37;11.80;1.00
18317;DHT22;9284;52.298;21.164;2023-04-01T09:06:31;11.90;99.90
18317;DHT22;9284;52.298;21.164;2023-04-01T09:09:25;12.10;52.80
18317;DHT22;9284;52.298;21.164;2023-04-01T09:15:27;12.50;99.90
18317;DHT22;9284;52.298;21.164;2023-04-01T09:18:24;12.60;1.00
18317;DHT22;9284;52.298;21.164;2023-04-01T09:21:24;12.70;1.00
18317;DHT22;9284;52.298;21.164;2023-04-01T09:27:05;12.90;1.00
18317;DHT22;9284;52.298;21.164;2023-04-01T09:30:06;12.80;99.90
18317;DHT22;9284;52.298;21.164;2023-04-01T09:32:54;12.90;86.10
18317;DHT22;9284;52.298;21.164;2023-04-01T09:35:38;12.50;99.90
18317;DHT22;9284;52.298;21.164;2023-04-01T09:38:21;12.30;1.00
18317;DHT22;9284;52.298;21.164;2023-04-01T09:41:01;12.30;1.00
18317;DHT22;9284;52.298;21.164;2023-04-01T09:44:03;12.20;1.00
18317;DHT22;9284;52.298;21.164;2023-04-01T09:46:54;11.80;99.90
18317;DHT22;9284;52.298;21.164;2023-04-01T09:49:55;11.50;1.00
18317;DHT22;9284;52.298;21.164;2023-04-01T09:52:31;11.50;1.00
18317;DHT22;9284;52.298;21.164;2023-04-01T09:55:25;11.50;1.00
18317;DHT22;9284;52.298;21.164;2023-04-01T09:58:24;11.30;99.90
18317;DHT22;9284;52.298;21.164;2023-04-01T10:01:29;11.30;99.90
18317;DHT22;9284;52.298;21.164;2023-04-01T10:14:10;11.40;1.00
18317;DHT22;9284;52.298;21.164;2023-04-01T10:17:14;11.60;1.00
18317;DHT22;9284;52.298;21.164;2023-04-01T10:23:27;12.00;49.40
18317;DHT22;9284;52.298;21.164;2023-04-01T10:26:37;12.10;85.00
18317;DHT22;9284;52.298;21.164;2023-04-01T10:30:03;12.20;1.00
18317;DHT22;9284;52.298;21.164;2023-04-01T10:33:03;12.30;1.00
18317;DHT22;9284;52.298;21.164;2023-04-01T10:36:06;12.20;1.00
18317;DHT22;9284;52.298;21.164;2023-04-01T10:39:19;12.00;1.00
18317;DHT22;9284;52.298;21.164;2023-04-01T10:53:05;11.80;99.90
18317;DHT22;9284;52.298;21.164;2023-04-01T10:56:23;11.80;99.90
18317;DHT22;9284;52.298;21.164;2023-04-01T11:03:09;12.60;1.00
18317;DHT22;9284;52.298;21.164;2023-04-01T11:23:02;13.50;1.00
18317;DHT22;9284;52.298;21.164;2023-04-01T11:26:06;13.80;1.00
18317;DHT22;9284;52.298;21.164;2023-04-01T11:29:06;13.80;1.00
18317;DHT22;9284;52.298;21.164;2023-04-01T11:32:42;13.70;1.00
18317;DHT22;9284;52.298;21.164;2023-04-01T11:41:34;13.40;1.00
18317;DHT22;9284;52.298;21.164;2023-04-01T11:44:37;13.40;86.00
18317;DHT22;9284;52.298;21.164;2023-04-01T11:47:35;13.40;99.90
18317;DHT22;9284;52.298;21.164;2023-04-01T11:50:23;13.10;28.90
18317;DHT22;9284;52.298;21.164;2023-04-01T11:56:08;12.10;1.00
18317;DHT22;9284;52.298;21.164;2023-04-01T11:59:17;11.90;1.00
18317;DHT22;9284;52.298;21.164;2023-04-01T12:02:32;11.70;1.00
18317;DHT22;9284;52.298;21.164;2023-04-01T12:05:42;11.40;99.90
18317;DHT22;9284;52.298;21.164;2023-04-01T12:08:42;11.20;1.00
18317;DHT22;9284;52.298;21.164;2023-04-01T12:11:34;11.00;12.30
18317;DHT22;9284;52.298;21.164;2023-04-01T12:14:22;10.90;92.90
18317;DHT22;9284;52.298;21.164;2023-04-01T12:17:08;10.90;99.90
18317;DHT22;9284;52.298;21.164;2023-04-01T12:19:53;10.90;1.00
18317;DHT22;9284;52.298;21.164;2023-04-01T12:22:45;11.20;99.90
18317;DHT22;9284;52.298;21.164;2023-04-01T12:26:03;11.40;99.90
18317;DHT22;9284;52.298;21.164;2023-04-01T12:29:03;11.60;1.00
18317;DHT22;9284;52.298;21.164;2023-04-01T12:31:46;11.90;1.00
18317;DHT22;9284;52.298;21.164;2023-04-01T12:37:54;12.00;99.90
18317;DHT22;9284;52.298;21.164;2023-04-01T12:40:40;11.90;1.00
18317;DHT22;9284;52.298;21.164;2023-04-01T12:43:58;11.90;1.00
18317;DHT22;9284;52.298;21.164;2023-04-01T12:46:41;11.80;1.00
18317;DHT22;9284;52.298;21.164;2023-04-01T12:49:41;11.90;99.90
18317;DHT22;9284;52.298;21.164;2023-04-01T12:52:18;12.00;1.00
18317;DHT22;9284;52.298;21.164;2023-04-01T12:55:29;12.20;31.30
18317;DHT22;9284;52.298;21.164;2023-04-01T12:58:52;12.20;99.90
18317;DHT22;9284;52.298;21.164;2023-04-01T13:01:30;12.30;99.90
18317;DHT22;9284;52.298;21.164;2023-04-01T13:04:35;12.40;99.90
18317;DHT22;9284;52.298;21.164;2023-04-01T13:07:22;12.30;99.90
18317;DHT22;9284;52.298;21.164;2023-04-01T13:10:02;12.50;99.90
18317;DHT22;9284;52.298;21.164;2023-04-01T13:13:00;12.40;1.00
18317;DHT22;9284;52.298;21.164;2023-04-01T13:15:41;12.40;1.00
18317;DHT22;9284;52.298;21.164;2023-04-01T13:18:32;12.50;74.60
18317;DHT22;9284;52.298;21.164;2023-04-01T13:21:30;12.50;68.30
18317;DHT22;9284;52.298;21.164;2023-04-01T13:24:05;12.40;1.00
18317;DHT22;9284;52.298;21.164;2023-04-01T13:26:43;12.30;1.00
18317;DHT22;9284;52.298;21.164;2023-04-01T13:29:23;12.20;99.90
18317;DHT22;9284;52.298;21.164;2023-04-01T13:32:05;12.20;1.00
18317;DHT22;9284;52.298;21.164;2023-04-01T13:34:54;12.20;1.00
18317;DHT22;9284;52.298;21.164;2023-04-01T13:37:51;12.10;1.00
18317;DHT22;9284;52.298;21.164;2023-04-01T13:40:36;12.10;99.90
18317;DHT22;9284;52.298;21.164;2023-04-01T13:43:27;12.10;99.90
18317;DHT22;9284;52.298;21.164;2023-04-01T13:46:26;12.10;1.00
18317;DHT22;9284;52.298;21.164;2023-04-01T13:49:19;12.10;1.00
18317;DHT22;9284;52.298;21.164;2023-04-01T13:52:08;12.10;70.70
18317;DHT22;9284;52.298;21.164;2023-04-01T13:55:14;12.10;1.00
18317;DHT22;9284;52.298;21.164;2023-04-01T13:58:01;12.10;99.90
18317;DHT22;9284;52.298;21.164;2023-04-01T14:00:42;12.20;64.30
18317;DHT22;9284;52.298;21.164;2023-04-01T14:03:37;12.30;99.90
18317;DHT22;9284;52.298;21.164;2023-04-01T14:06:19;12.40;1.00
18317;DHT22;9284;52.298;21.164;2023-04-01T14:12:01;12.20;1.00
18317;DHT22;9284;52.298;21.164;2023-04-01T14:14:41;12.00;99.90
18317;DHT22;9284;52.298;21.164;2023-04-01T14:17:29;11.60;1.00
18317;DHT22;9284;52.298;21.164;2023-04-01T14:20:27;11.40;99.90
18317;DHT22;9284;52.298;21.164;2023-04-01T14:23:13;11.30;1.00
18317;DHT22;9284;52.298;21.164;2023-04-01T14:26:02;11.20;1.00
18317;DHT22;9284;52.298;21.164;2023-04-01T14:28:36;11.00;23.70
18317;DHT22;9284;52.298;21.164;2023-04-01T14:31:21;11.00;99.90
18317;DHT22;9284;52.298;21.164;2023-04-01T14:34:06;11.00;99.90
18317;DHT22;9284;52.298;21.164;2023-04-01T14:37:08;10.90;1.00
18317;DHT22;9284;52.298;21.164;2023-04-01T14:40:15;10.90;1.00
18317;DHT22;9284;52.298;21.164;2023-04-01T14:43:04;10.80;1.00
18317;DHT22;9284;52.298;21.164;2023-04-01T14:46:00;10.40;99.90
18317;DHT22;9284;52.298;21.164;2023-04-01T14:48:37;10.30;1.00
18317;DHT22;9284;52.298;21.164;2023-04-01T14:51:20;10.10;99.90
18317;DHT22;9284;52.298;21.164;2023-04-01T14:54:02;10.00;99.90
18317;DHT22;9284;52.298;21.164;2023-04-01T14:56:37;9.80;1.00
18317;DHT22;9284;52.298;21.164;2023-04-01T14:59:13;9.70;1.00
18317;DHT22;9284;52.298;21.164;2023-04-01T15:01:51;9.70;1.00
18317;DHT22;9284;52.298;21.164;2023-04-01T15:04:49;9.60;1.00
18317;DHT22;9284;52.298;21.164;2023-04-01T15:11:02;9.50;1.00
18317;DHT22;9284;52.298;21.164;2023-04-01T15:13:54;9.50;2.30
18317;DHT22;9284;52.298;21.164;2023-04-01T15:16:44;9.40;18.00
18317;DHT22;9284;52.298;21.164;2023-04-01T15:19:27;9.30;35.40
18317;DHT22;9284;52.298;21.164;2023-04-01T15:22:19;9.30;85.00
18317;DHT22;9284;52.298;21.164;2023-04-01T15:25:15;9.10;99.90
18317;DHT22;9284;52.298;21.164;2023-04-01T15:28:08;9.20;99.90
18317;DHT22;9284;52.298;21.164;2023-04-01T15:30:50;9.10;99.90
18317;DHT22;9284;52.298;21.164;2023-04-01T15:33:42;9.10;99.90
18317;DHT22;9284;52.298;21.164;2023-04-01T15:36:44;9.10;99.90
18317;DHT22;9284;52.298;21.164;2023-04-01T15:39:28;9.10;99.90
18317;DHT22;9284;52.298;21.164;2023-04-01T15:42:22;9.10;99.90
18317;DHT22;9284;52.298;21.164;2023-04-01T15:45:07;9.10;99.90
18317;DHT22;9284;52.298;21.164;2023-04-01T15:47:44;9.10;99.90
18317;DHT22;9284;52.298;21.164;2023-04-01T15:50:36;9.10;99.90
18317;DHT22;9284;52.298;21.164;2023-04-01T15:53:18;9.10;99.90
18317;DHT22;9284;52.298;21.164;2023-04-01T15:55:58;9.10;99.90
18317;DHT22;9284;52.298;21.164;2023-04-01T15:58:41;9.10;99.90
18317;DHT22;9284;52.298;21.164;2023-04-01T16:01:28;9.10;99.90
18317;DHT22;9284;52.298;21.164;2023-04-01T16:04:11;9.00;99.90
18317;DHT22;9284;52.298;21.164;2023-04-01T16:07:01;8.90;99.90
18317;DHT22;9284;52.298;21.164;2023-04-01T16:10:08;8.80;99.90
18317;DHT22;9284;52.298;21.164;2023-04-01T16:12:52;8.80;99.90
18317;DHT22;9284;52.298;21.164;2023-04-01T16:15:28;8.60;99.90
18317;DHT22;9284;52.298;21.164;2023-04-01T16:18:22;8.60;99.90
18317;DHT22;9284;52.298;21.164;2023-04-01T16:21:02;8.60;99.90
18317;DHT22;9284;52.298;21.164;2023-04-01T16:23:39;8.50;99.90
18317;DHT22;9284;52.298;21.164;2023-04-01T16:26:18;8.60;99.90
18317;DHT22;9284;52.298;21.164;2023-04-01T16:29:02;8.60;99.90
18317;DHT22;9284;52.298;21.164;2023-04-01T16:31:42;8.60;99.90
18317;DHT22;9284;52.298;21.164;2023-04-01T16:34:29;8.50;99.90
18317;DHT22;9284;52.298;21.164;2023-04-01T16:37:06;8.50;99.90
18317;DHT22;9284;52.298;21.164;2023-04-01T16:39:47;8.50;99.90
18317;DHT22;9284;52.298;21.164;2023-04-01T16:42:38;8.40;99.90
18317;DHT22;9284;52.298;21.164;2023-04-01T16:45:32;8.40;99.90
18317;DHT22;9284;52.298;21.164;2023-04-01T16:48:20;8.40;99.90
18317;DHT22;9284;52.298;21.164;2023-04-01T16:50:58;8.40;99.90
18317;DHT22;9284;52.298;21.164;2023-04-01T16:53:43;8.30;99.90
18317;DHT22;9284;52.298;21.164;2023-04-01T16:56:24;8.30;99.90
18317;DHT22;9284;52.298;21.164;2023-04-01T16:59:02;8.20;99.90
18317;DHT22;9284;52.298;21.164;2023-04-01T17:01:41;8.20;99.90
18317;DHT22;9284;52.298;21.164;2023-04-01T17:04:25;8.20;99.90
18317;DHT22;9284;52.298;21.164;2023-04-01T17:07:02;8.20;99.90
18317;DHT22;9284;52.298;21.164;2023-04-01T17:09:51;8.20;99.90
18317;DHT22;9284;52.298;21.164;2023-04-01T17:12:30;8.20;99.90
18317;DHT22;9284;52.298;21.164;2023-04-01T17:15:20;8.20;99.90
18317;DHT22;9284;52.298;21.164;2023-04-01T17:17:58;8.30;99.90
18317;DHT22;9284;52.298;21.164;2023-04-01T17:20:38;8.30;99.90
18317;DHT22;9284;52.298;21.164;2023-04-01T17:23:18;8.30;99.90
18317;DHT22;9284;52.298;21.164;2023-04-01T17:26:01;8.30;99.90
18317;DHT22;9284;52.298;21.164;2023-04-01T17:28:41;8.30;99.90
18317;DHT22;9284;52.298;21.164;2023-04-01T17:31:20;8.30;99.90
18317;DHT22;9284;52.298;21.164;2023-04-01T17:34:06;8.30;99.90
18317;DHT22;9284;52.298;21.164;2023-04-01T17:36:50;8.30;99.90
18317;DHT22;9284;52.298;21.164;2023-04-01T17:39:39;8.40;99.90
18317;DHT22;9284;52.298;21.164;2023-04-01T17:42:15;8.40;99.90
18317;DHT22;9284;52.298;21.164;2023-04-01T17:44:54;8.40;99.90
18317;DHT22;9284;52.298;21.164;2023-04-01T17:47:41;8.40;99.90
18317;DHT22;9284;52.298;21.164;2023-04-01T17:50:23;8.30;99.90
18317;DHT22;9284;52.298;21.164;2023-04-01T17:56:02;8.30;99.90
18317;DHT22;9284;52.298;21.164;2023-04-01T17:58:41;8.30;99.90
18317;DHT22;9284;52.298;21.164;2023-04-01T18:01:43;8.30;99.90
18317;DHT22;9284;52.298;21.164;2023-04-01T18:07:35;8.20;99.90
18317;DHT22;9284;52.298;21.164;2023-04-01T18:10:17;8.20;99.90
18317;DHT22;9284;52.298;21.164;2023-04-01T18:13:16;8.10;99.90
18317;DHT22;9284;52.298;21.164;2023-04-01T18:16:00;8.20;89.60
18317;DHT22;9284;52.298;21.164;2023-04-01T18:18:39;8.10;92.50
18317;DHT22;9284;52.298;21.164;2023-04-01T18:21:17;8.10;99.90
18317;DHT22;9284;52.298;21.164;2023-04-01T18:23:55;8.10;99.90
18317;DHT22;9284;52.298;21.164;2023-04-01T18:26:32;8.10;99.90
18317;DHT22;9284;52.298;21.164;2023-04-01T18:29:12;8.10;99.90
18317;DHT22;9284;52.298;21.164;2023-04-01T18:31:54;8.10;86.00
18317;DHT22;9284;52.298;21.164;2023-04-01T18:34:40;8.10;91.30
18317;DHT22;9284;52.298;21.164;2023-04-01T18:37:22;8.10;99.90
18317;DHT22;9284;52.298;21.164;2023-04-01T18:40:02;8.10;99.90
18317;DHT22;9284;52.298;21.164;2023-04-01T18:42:44;8.00;99.90
18317;DHT22;9284;52.298;21.164;2023-04-01T18:45:24;8.10;99.90
18317;DHT22;9284;52.298;21.164;2023-04-01T18:48:30;8.00;99.90
18317;DHT22;9284;52.298;21.164;2023-04-01T18:51:17;8.00;99.90
18317;DHT22;9284;52.298;21.164;2023-04-01T18:53:56;8.00;99.90
18317;DHT22;9284;52.298;21.164;2023-04-01T18:56:40;8.00;99.90
18317;DHT22;9284;52.298;21.164;2023-04-01T18:59:14;7.90;95.20
18317;DHT22;9284;52.298;21.164;2023-04-01T19:01:52;7.90;31.50
18317;DHT22;9284;52.298;21.164;2023-04-01T19:04:32;7.90;14.70
18317;DHT22;9284;52.298;21.164;2023-04-01T19:07:39;7.90;25.20
18317;DHT22;9284;52.298;21.164;2023-04-01T19:10:18;7.90;20.60
18317;DHT22;9284;52.298;21.164;2023-04-01T19:13:06;7.80;1.00
18317;DHT22;9284;52.298;21.164;2023-04-01T19:15:52;7.80;1.00
18317;DHT22;9284;52.298;21.164;2023-04-01T19:18:41;7.80;1.00
18317;DHT22;9284;52.298;21.164;2023-04-01T19:21:18;7.80;1.00
18317;DHT22;9284;52.298;21.164;2023-04-01T19:24:17;7.80;1.00
18317;DHT22;9284;52.298;21.164;2023-04-01T19:26:58;7.80;1.00
18317;DHT22;9284;52.298;21.164;2023-04-01T19:29:48;7.90;1.00
18317;DHT22;9284;52.298;21.164;2023-04-01T19:32:33;7.90;1.00
18317;DHT22;9284;52.298;21.164;2023-04-01T19:35:32;7.90;1.00
18317;DHT22;9284;52.298;21.164;2023-04-01T19:38:21;7.90;1.00
18317;DHT22;9284;52.298;21.164;2023-04-01T19:40:57;7.90;99.90
18317;DHT22;9284;52.298;21.164;2023-04-01T19:43:50;7.90;99.90
18317;DHT22;9284;52.298;21.164;2023-04-01T19:46:30;7.90;50.90
18317;DHT22;9284;52.298;21.164;2023-04-01T19:49:19;7.90;75.70
18317;DHT22;9284;52.298;21.164;2023-04-01T19:51:59;7.90;1.00
18317;DHT22;9284;52.298;21.164;2023-04-01T19:54:45;7.90;1.00
18317;DHT22;9284;52.298;21.164;2023-04-01T19:57:30;8.00;1.00
18317;DHT22;9284;52.298;21.164;2023-04-01T20:00:06;8.00;1.00
18317;DHT22;9284;52.298;21.164;2023-04-01T20:05:54;7.80;26.90
18317;DHT22;9284;52.298;21.164;2023-04-01T20:08:39;8.00;1.00
18317;DHT22;9284;52.298;21.164;2023-04-01T20:11:27;7.90;1.00
18317;DHT22;9284;52.298;21.164;2023-04-01T20:14:06;7.90;22.50
18317;DHT22;9284;52.298;21.164;2023-04-01T20:16:55;7.90;2.90
18317;DHT22;9284;52.298;21.164;2023-04-01T20:19:33;7.90;1.00
18317;DHT22;9284;52.298;21.164;2023-04-01T20:22:08;7.90;1.00
18317;DHT22;9284;52.298;21.164;2023-04-01T20:24:50;7.90;1.00
18317;DHT22;9284;52.298;21.164;2023-04-01T20:27:22;7.80;1.00
18317;DHT22;9284;52.298;21.164;2023-04-01T20:30:16;7.80;1.00
18317;DHT22;9284;52.298;21.164;2023-04-01T20:33:02;7.80;1.00
18317;DHT22;9284;52.298;21.164;2023-04-01T20:35:39;7.80;99.90
18317;DHT22;9284;52.298;21.164;2023-04-01T20:41:23;7.80;99.90
18317;DHT22;9284;52.298;21.164;2023-04-01T20:44:02;7.70;99.90
18317;DHT22;9284;52.298;21.164;2023-04-01T20:46:43;7.80;99.90
18317;DHT22;9284;52.298;21.164;2023-04-01T20:52:32;7.70;1.00
18317;DHT22;9284;52.298;21.164;2023-04-01T20:55:21;7.70;1.00
18317;DHT22;9284;52.298;21.164;2023-04-01T20:58:09;7.70;99.90
18317;DHT22;9284;52.298;21.164;2023-04-01T21:00:49;7.60;99.90
18317;DHT22;9284;52.298;21.164;2023-04-01T21:03:30;7.60;99.90
18317;DHT22;9284;52.298;21.164;2023-04-01T21:06:15;7.60;1.00
18317;DHT22;9284;52.298;21.164;2023-04-01T21:08:57;7.60;1.00
18317;DHT22;9284;52.298;21.164;2023-04-01T21:11:37;7.60;1.00
18317;DHT22;9284;52.298;21.164;2023-04-01T21:14:36;7.60;81.00
18317;DHT22;9284;52.298;21.164;2023-04-01T21:17:15;7.60;1.00
18317;DHT22;9284;52.298;21.164;2023-04-01T21:19:58;7.60;1.00
18317;DHT22;9284;52.298;21.164;2023-04-01T21:22:40;7.60;1.00
18317;DHT22;9284;52.298;21.164;2023-04-01T21:25:27;7.60;1.00
18317;DHT22;9284;52.298;21.164;2023-04-01T21:28:20;7.60;1.00
18317;DHT22;9284;52.298;21.164;2023-04-01T21:31:04;7.50;1.00
18317;DHT22;9284;52.298;21.164;2023-04-01T21:33:44;7.50;99.90
18317;DHT22;9284;52.298;21.164;2023-04-01T21:36:24;7.50;1.00
18317;DHT22;9284;52.298;21.164;2023-04-01T21:39:02;7.50;1.00
18317;DHT22;9284;52.298;21.164;2023-04-01T21:41:47;7.50;1.00
18317;DHT22;9284;52.298;21.164;2023-04-01T21:44:43;7.50;1.00
18317;DHT22;9284;52.298;21.164;2023-04-01T21:50:53;7.50;1.00
18317;DHT22;9284;52.298;21.164;2023-04-01T21:57:00;7.50;1.00
18317;DHT22;9284;52.298;21.164;2023-04-01T22:06:06;7.40;1.00
18317;DHT22;9284;52.298;21.164;2023-04-01T22:08:46;7.40;99.90
18317;DHT22;9284;52.298;21.164;2023-04-01T22:11:23;7.40;99.90
18317;DHT22;9284;52.298;21.164;2023-04-01T22:13:57;7.30;99.90
18317;DHT22;9284;52.298;21.164;2023-04-01T22:16:34;7.30;46.10
18317;DHT22;9284;52.298;21.164;2023-04-01T22:19:13;7.30;39.00
18317;DHT22;9284;52.298;21.164;2023-04-01T22:21:49;7.20;1.00